sensor_id;sensor_type;location;lat;lon;timestamp;P1;durP1;ratioP1;P2;durP2;ratioP2
1376;SDS011;682;52.502;13.488;2024-02-26T00:00:33;20.52;;;18.52;;
1376;SDS011;682;52.502;13.488;2024-02-26T00:03:01;20.77;;;18.70;;
1376;SDS011;682;52.502;13.488;2024-02-26T00:05:27;17.65;;;15.85;;
1376;SDS011;682;52.502;13.488;2024-02-26T00:07:57;20.10;;;18.00;;
1376;SDS011;682;52.502;13.488;2024-02-26T00:10:24;20.10;;;18.00;;
1376;SDS011;682;52.502;13.488;2024-02-26T00:12:51;20.17;;;18.20;;
1376;SDS011;682;52.502;13.488;2024-02-26T00:15:20;20.52;;;18.33;;
1376;SDS011;682;52.502;13.488;2024-02-26T00:17:47;18.92;;;17.23;;
1376;SDS011;682;52.502;13.488;2024-02-26T00:20:13;18.55;;;16.67;;
1376;SDS011;682;52.502;13.488;2024-02-26T00:22:40;17.98;;;16.20;;
1376;SDS011;682;52.502;13.488;2024-02-26T00:25:07;17.67;;;15.88;;
1376;SDS011;682;52.502;13.488;2024-02-26T00:27:34;20.02;;;16.58;;
1376;SDS011;682;52.502;13.488;2024-02-26T00:30:01;16.60;;;15.10;;
1376;SDS011;682;52.502;13.488;2024-02-26T00:32:30;15.63;;;14.23;;
1376;SDS011;682;52.502;13.488;2024-02-26T00:34:57;18.40;;;16.52;;
1376;SDS011;682;52.502;13.488;2024-02-26T00:37:24;17.67;;;15.02;;
1376;SDS011;682;52.502;13.488;2024-02-26T00:39:51;14.43;;;13.13;;
1376;SDS011;682;52.502;13.488;2024-02-26T00:42:19;13.25;;;12.05;;
1376;SDS011;682;52.502;13.488;2024-02-26T00:44:46;13.02;;;11.75;;
1376;SDS011;682;52.502;13.488;2024-02-26T00:47:13;14.43;;;13.07;;
1376;SDS011;682;52.502;13.488;2024-02-26T00:49:43;15.88;;;14.48;;
1376;SDS011;682;52.502;13.488;2024-02-26T00:52:10;14.20;;;12.80;;
1376;SDS011;682;52.502;13.488;2024-02-26T00:54:37;12.98;;;11.68;;
1376;SDS011;682;52.502;13.488;2024-02-26T00:57:04;12.40;;;11.10;;
1376;SDS011;682;52.502;13.488;2024-02-26T00:59:31;11.95;;;10.85;;
1376;SDS011;682;52.502;13.488;2024-02-26T01:02:00;11.23;;;10.13;;
1376;SDS011;682;52.502;13.488;2024-02-26T01:04:29;12.60;;;11.40;;
1376;SDS011;682;52.502;13.488;2024-02-26T01:06:59;12.75;;;11.70;;
1376;SDS011;682;52.502;13.488;2024-02-26T01:09:28;12.40;;;10.93;;
1376;SDS011;682;52.502;13.488;2024-02-26T01:11:55;16.23;;;11.20;;
1376;SDS011;682;52.502;13.488;2024-02-26T01:14:21;11.20;;;10.10;;
1376;SDS011;682;52.502;13.488;2024-02-26T01:16:48;11.35;;;10.25;;
1376;SDS011;682;52.502;13.488;2024-02-26T01:19:15;11.90;;;10.80;;
1376;SDS011;682;52.502;13.488;2024-02-26T01:21:42;10.90;;;10.00;;
1376;SDS011;682;52.502;13.488;2024-02-26T01:24:10;12.20;;;11.00;;
1376;SDS011;682;52.502;13.488;2024-02-26T01:26:38;12.75;;;10.40;;
1376;SDS011;682;52.502;13.488;2024-02-26T01:29:05;11.32;;;10.30;;
1376;SDS011;682;52.502;13.488;2024-02-26T01:31:32;11.50;;;10.38;;
1376;SDS011;682;52.502;13.488;2024-02-26T01:33:59;12.27;;;11.07;;
1376;SDS011;682;52.502;13.488;2024-02-26T01:36:26;11.57;;;10.40;;
1376;SDS011;682;52.502;13.488;2024-02-26T01:38:52;11.85;;;10.65;;
1376;SDS011;682;52.502;13.488;2024-02-26T01:41:21;11.85;;;10.75;;
1376;SDS011;682;52.502;13.488;2024-02-26T01:43:48;11.77;;;10.60;;
1376;SDS011;682;52.502;13.488;2024-02-26T01:46:15;11.15;;;10.05;;
1376;SDS011;682;52.502;13.488;2024-02-26T01:48:43;10.70;;;9.70;;
1376;SDS011;682;52.502;13.488;2024-02-26T01:51:12;11.73;;;10.52;;
1376;SDS011;682;52.502;13.488;2024-02-26T01:53:42;11.00;;;10.07;;
1376;SDS011;682;52.502;13.488;2024-02-26T01:56:10;11.50;;;10.05;;
1376;SDS011;682;52.502;13.488;2024-02-26T01:58:39;12.80;;;11.60;;
1376;SDS011;682;52.502;13.488;2024-02-26T02:01:07;11.45;;;10.45;;
1376;SDS011;682;52.502;13.488;2024-02-26T02:03:34;11.82;;;10.93;;
1376;SDS011;682;52.502;13.488;2024-02-26T02:06:04;11.70;;;10.50;;
1376;SDS011;682;52.502;13.488;2024-02-26T02:08:31;12.35;;;11.25;;
1376;SDS011;682;52.502;13.488;2024-02-26T02:11:00;11.88;;;10.77;;
1376;SDS011;682;52.502;13.488;2024-02-26T02:13:27;13.00;;;10.52;;
1376;SDS011;682;52.502;13.488;2024-02-26T02:15:55;11.07;;;10.15;;
1376;SDS011;682;52.502;13.488;2024-02-26T02:18:22;12.40;;;11.20;;
1376;SDS011;682;52.502;13.488;2024-02-26T02:20:51;11.80;;;10.75;;
1376;SDS011;682;52.502;13.488;2024-02-26T02:23:21;11.60;;;10.38;;
1376;SDS011;682;52.502;13.488;2024-02-26T02:25:48;11.85;;;10.65;;
1376;SDS011;682;52.502;13.488;2024-02-26T02:28:15;10.25;;;9.45;;
1376;SDS011;682;52.502;13.488;2024-02-26T02:30:42;9.85;;;8.85;;
1376;SDS011;682;52.502;13.488;2024-02-26T02:33:11;9.40;;;8.60;;
1376;SDS011;682;52.502;13.488;2024-02-26T02:35:40;9.15;;;8.35;;
1376;SDS011;682;52.502;13.488;2024-02-26T02:38:08;9.35;;;8.23;;
1376;SDS011;682;52.502;13.488;2024-02-26T02:40:35;7.78;;;7.07;;
1376;SDS011;682;52.502;13.488;2024-02-26T02:43:02;8.35;;;7.65;;
1376;SDS011;682;52.502;13.488;2024-02-26T02:45:29;8.02;;;7.22;;
1376;SDS011;682;52.502;13.488;2024-02-26T02:47:57;7.90;;;7.22;;
1376;SDS011;682;52.502;13.488;2024-02-26T02:50:23;7.28;;;6.57;;
1376;SDS011;682;52.502;13.488;2024-02-26T02:52:50;7.55;;;6.95;;
1376;SDS011;682;52.502;13.488;2024-02-26T02:55:20;8.93;;;8.02;;
1376;SDS011;682;52.502;13.488;2024-02-26T02:57:47;8.13;;;7.43;;
1376;SDS011;682;52.502;13.488;2024-02-26T03:00:14;7.55;;;6.85;;
1376;SDS011;682;52.502;13.488;2024-02-26T03:02:41;11.88;;;7.43;;
1376;SDS011;682;52.502;13.488;2024-02-26T03:05:10;7.75;;;7.10;;
1376;SDS011;682;52.502;13.488;2024-02-26T03:07:37;7.82;;;7.03;;
1376;SDS011;682;52.502;13.488;2024-02-26T03:10:05;9.13;;;8.20;;
1376;SDS011;682;52.502;13.488;2024-02-26T03:12:33;7.43;;;6.82;;
1376;SDS011;682;52.502;13.488;2024-02-26T03:15:01;8.30;;;7.50;;
1376;SDS011;682;52.502;13.488;2024-02-26T03:17:29;9.20;;;8.38;;
1376;SDS011;682;52.502;13.488;2024-02-26T03:19:56;9.40;;;7.28;;
1376;SDS011;682;52.502;13.488;2024-02-26T03:22:23;9.02;;;8.23;;
1376;SDS011;682;52.502;13.488;2024-02-26T03:24:50;9.02;;;8.23;;
1376;SDS011;682;52.502;13.488;2024-02-26T03:27:17;9.15;;;8.25;;
1376;SDS011;682;52.502;13.488;2024-02-26T03:29:45;11.32;;;8.80;;
1376;SDS011;682;52.502;13.488;2024-02-26T03:32:13;8.85;;;8.13;;
1376;SDS011;682;52.502;13.488;2024-02-26T03:34:39;10.20;;;8.05;;
1376;SDS011;682;52.502;13.488;2024-02-26T03:37:07;9.05;;;8.15;;
1376;SDS011;682;52.502;13.488;2024-02-26T03:39:35;8.52;;;7.82;;
1376;SDS011;682;52.502;13.488;2024-02-26T03:42:02;9.00;;;7.85;;
1376;SDS011;682;52.502;13.488;2024-02-26T03:44:29;10.55;;;9.55;;
1376;SDS011;682;52.502;13.488;2024-02-26T03:46:58;8.93;;;7.70;;
1376;SDS011;682;52.502;13.488;2024-02-26T03:49:25;9.32;;;8.50;;
1376;SDS011;682;52.502;13.488;2024-02-26T03:51:51;11.00;;;7.70;;
1376;SDS011;682;52.502;13.488;2024-02-26T03:54:18;10.65;;;9.55;;
1376;SDS011;682;52.502;13.488;2024-02-26T03:56:45;10.25;;;9.25;;
1376;SDS011;682;52.502;13.488;2024-02-26T03:59:12;9.88;;;8.93;;
1376;SDS011;682;52.502;13.488;2024-02-26T04:01:39;10.75;;;9.55;;
1376;SDS011;682;52.502;13.488;2024-02-26T04:04:12;10.32;;;8.75;;
1376;SDS011;682;52.502;13.488;2024-02-26T04:06:39;10.40;;;9.50;;
1376;SDS011;682;52.502;13.488;2024-02-26T04:09:05;11.00;;;9.70;;
1376;SDS011;682;52.502;13.488;2024-02-26T04:11:34;12.30;;;9.75;;
1376;SDS011;682;52.502;13.488;2024-02-26T04:14:01;12.55;;;10.45;;
1376;SDS011;682;52.502;13.488;2024-02-26T04:16:29;12.35;;;10.82;;
1376;SDS011;682;52.502;13.488;2024-02-26T04:18:55;13.45;;;10.35;;
1376;SDS011;682;52.502;13.488;2024-02-26T04:21:24;13.00;;;10.82;;
1376;SDS011;682;52.502;13.488;2024-02-26T04:23:51;11.75;;;10.65;;
1376;SDS011;682;52.502;13.488;2024-02-26T04:26:20;11.32;;;9.43;;
1376;SDS011;682;52.502;13.488;2024-02-26T04:28:47;13.93;;;11.30;;
1376;SDS011;682;52.502;13.488;2024-02-26T04:31:14;11.00;;;9.90;;
1376;SDS011;682;52.502;13.488;2024-02-26T04:33:41;15.18;;;12.52;;
1376;SDS011;682;52.502;13.488;2024-02-26T04:36:12;20.60;;;13.13;;
1376;SDS011;682;52.502;13.488;2024-02-26T04:38:41;13.10;;;11.68;;
1376;SDS011;682;52.502;13.488;2024-02-26T04:41:08;12.50;;;10.90;;
1376;SDS011;682;52.502;13.488;2024-02-26T04:43:35;12.95;;;10.95;;
1376;SDS011;682;52.502;13.488;2024-02-26T04:46:06;12.65;;;11.30;;
1376;SDS011;682;52.502;13.488;2024-02-26T04:48:33;14.85;;;13.27;;
1376;SDS011;682;52.502;13.488;2024-02-26T04:51:00;16.13;;;12.52;;
1376;SDS011;682;52.502;13.488;2024-02-26T04:53:28;17.30;;;12.45;;
1376;SDS011;682;52.502;13.488;2024-02-26T04:55:57;14.90;;;12.75;;
1376;SDS011;682;52.502;13.488;2024-02-26T04:58:24;13.52;;;12.07;;
1376;SDS011;682;52.502;13.488;2024-02-26T05:00:51;17.10;;;14.75;;
1376;SDS011;682;52.502;13.488;2024-02-26T05:03:18;16.67;;;13.70;;
1376;SDS011;682;52.502;13.488;2024-02-26T05:05:45;13.60;;;12.02;;
1376;SDS011;682;52.502;13.488;2024-02-26T05:08:12;14.68;;;12.43;;
1376;SDS011;682;52.502;13.488;2024-02-26T05:10:39;14.50;;;12.85;;
1376;SDS011;682;52.502;13.488;2024-02-26T05:13:09;15.57;;;12.50;;
1376;SDS011;682;52.502;13.488;2024-02-26T05:15:36;14.30;;;12.80;;
1376;SDS011;682;52.502;13.488;2024-02-26T05:18:04;16.75;;;14.88;;
1376;SDS011;682;52.502;13.488;2024-02-26T05:20:32;18.85;;;12.85;;
1376;SDS011;682;52.502;13.488;2024-02-26T05:23:01;14.80;;;13.30;;
1376;SDS011;682;52.502;13.488;2024-02-26T05:25:29;15.18;;;12.70;;
1376;SDS011;682;52.502;13.488;2024-02-26T05:27:56;19.30;;;14.27;;
1376;SDS011;682;52.502;13.488;2024-02-26T05:30:25;18.77;;;13.82;;
1376;SDS011;682;52.502;13.488;2024-02-26T05:32:53;19.80;;;14.70;;
1376;SDS011;682;52.502;13.488;2024-02-26T05:35:20;18.85;;;13.15;;
1376;SDS011;682;52.502;13.488;2024-02-26T05:37:49;19.10;;;13.70;;
1376;SDS011;682;52.502;13.488;2024-02-26T05:40:16;18.30;;;15.15;;
1376;SDS011;682;52.502;13.488;2024-02-26T05:42:44;17.48;;;13.77;;
1376;SDS011;682;52.502;13.488;2024-02-26T05:45:11;15.40;;;13.80;;
1376;SDS011;682;52.502;13.488;2024-02-26T05:47:39;17.05;;;13.75;;
1376;SDS011;682;52.502;13.488;2024-02-26T05:50:08;19.95;;;15.32;;
1376;SDS011;682;52.502;13.488;2024-02-26T05:52:36;17.67;;;15.05;;
1376;SDS011;682;52.502;13.488;2024-02-26T05:55:03;18.73;;;14.82;;
1376;SDS011;682;52.502;13.488;2024-02-26T05:57:31;19.98;;;15.05;;
1376;SDS011;682;52.502;13.488;2024-02-26T06:00:00;19.83;;;14.93;;
1376;SDS011;682;52.502;13.488;2024-02-26T06:02:29;17.13;;;15.15;;
1376;SDS011;682;52.502;13.488;2024-02-26T06:04:57;18.98;;;15.13;;
1376;SDS011;682;52.502;13.488;2024-02-26T06:07:24;22.45;;;16.58;;
1376;SDS011;682;52.502;13.488;2024-02-26T06:09:51;19.80;;;17.67;;
1376;SDS011;682;52.502;13.488;2024-02-26T06:12:18;22.33;;;16.15;;
1376;SDS011;682;52.502;13.488;2024-02-26T06:14:45;17.65;;;15.80;;
1376;SDS011;682;52.502;13.488;2024-02-26T06:17:12;20.20;;;17.80;;
1376;SDS011;682;52.502;13.488;2024-02-26T06:19:44;18.02;;;16.13;;
1376;SDS011;682;52.502;13.488;2024-02-26T06:22:15;25.90;;;18.15;;
1376;SDS011;682;52.502;13.488;2024-02-26T06:24:42;20.75;;;15.57;;
1376;SDS011;682;52.502;13.488;2024-02-26T06:27:09;22.63;;;18.10;;
1376;SDS011;682;52.502;13.488;2024-02-26T06:29:39;22.73;;;16.65;;
1376;SDS011;682;52.502;13.488;2024-02-26T06:32:06;19.45;;;17.35;;
1376;SDS011;682;52.502;13.488;2024-02-26T06:34:34;22.05;;;16.52;;
1376;SDS011;682;52.502;13.488;2024-02-26T06:37:00;34.85;;;21.83;;
1376;SDS011;682;52.502;13.488;2024-02-26T06:39:30;18.25;;;16.40;;
1376;SDS011;682;52.502;13.488;2024-02-26T06:41:56;18.92;;;14.70;;
1376;SDS011;682;52.502;13.488;2024-02-26T06:44:25;19.15;;;15.95;;
1376;SDS011;682;52.502;13.488;2024-02-26T06:46:57;23.15;;;17.15;;
1376;SDS011;682;52.502;13.488;2024-02-26T06:49:24;19.27;;;15.35;;
1376;SDS011;682;52.502;13.488;2024-02-26T06:51:51;18.13;;;16.00;;
1376;SDS011;682;52.502;13.488;2024-02-26T06:54:19;17.67;;;15.57;;
1376;SDS011;682;52.502;13.488;2024-02-26T06:56:49;19.33;;;16.20;;
1376;SDS011;682;52.502;13.488;2024-02-26T06:59:16;17.98;;;16.08;;
1376;SDS011;682;52.502;13.488;2024-02-26T07:01:45;25.13;;;16.63;;
1376;SDS011;682;52.502;13.488;2024-02-26T07:04:12;19.38;;;16.40;;
1376;SDS011;682;52.502;13.488;2024-02-26T07:06:39;18.02;;;16.10;;
1376;SDS011;682;52.502;13.488;2024-02-26T07:09:06;16.17;;;14.48;;
1376;SDS011;682;52.502;13.488;2024-02-26T07:11:37;17.95;;;16.17;;
1376;SDS011;682;52.502;13.488;2024-02-26T07:14:08;21.63;;;17.58;;
1376;SDS011;682;52.502;13.488;2024-02-26T07:16:36;19.83;;;15.90;;
1376;SDS011;682;52.502;13.488;2024-02-26T07:19:04;20.85;;;15.10;;
1376;SDS011;682;52.502;13.488;2024-02-26T07:21:32;23.63;;;18.55;;
1376;SDS011;682;52.502;13.488;2024-02-26T07:24:01;22.75;;;16.90;;
1376;SDS011;682;52.502;13.488;2024-02-26T07:26:29;24.98;;;16.63;;
1376;SDS011;682;52.502;13.488;2024-02-26T07:28:56;34.75;;;27.27;;
1376;SDS011;682;52.502;13.488;2024-02-26T07:31:27;18.85;;;16.80;;
1376;SDS011;682;52.502;13.488;2024-02-26T07:33:56;17.42;;;15.60;;
1376;SDS011;682;52.502;13.488;2024-02-26T07:36:23;27.25;;;16.98;;
1376;SDS011;682;52.502;13.488;2024-02-26T07:38:50;19.40;;;15.85;;
1376;SDS011;682;52.502;13.488;2024-02-26T07:41:19;20.38;;;16.17;;
1376;SDS011;682;52.502;13.488;2024-02-26T07:43:46;28.77;;;21.33;;
1376;SDS011;682;52.502;13.488;2024-02-26T07:46:17;19.17;;;16.98;;
1376;SDS011;682;52.502;13.488;2024-02-26T07:48:45;20.37;;;17.63;;
1376;SDS011;682;52.502;13.488;2024-02-26T07:51:12;23.92;;;16.73;;
1376;SDS011;682;52.502;13.488;2024-02-26T07:53:40;28.65;;;19.45;;
1376;SDS011;682;52.502;13.488;2024-02-26T07:56:07;20.38;;;17.50;;
1376;SDS011;682;52.502;13.488;2024-02-26T07:58:35;20.15;;;16.73;;
1376;SDS011;682;52.502;13.488;2024-02-26T08:01:02;18.33;;;16.40;;
1376;SDS011;682;52.502;13.488;2024-02-26T08:03:30;20.23;;;17.57;;
1376;SDS011;682;52.502;13.488;2024-02-26T08:06:00;28.83;;;18.80;;
1376;SDS011;682;52.502;13.488;2024-02-26T08:08:27;21.93;;;16.70;;
1376;SDS011;682;52.502;13.488;2024-02-26T08:10:58;20.23;;;17.13;;
1376;SDS011;682;52.502;13.488;2024-02-26T08:13:25;19.55;;;17.50;;
1376;SDS011;682;52.502;13.488;2024-02-26T08:15:52;20.63;;;17.90;;
1376;SDS011;682;52.502;13.488;2024-02-26T08:18:20;26.20;;;17.80;;
1376;SDS011;682;52.502;13.488;2024-02-26T08:20:47;23.63;;;19.57;;
1376;SDS011;682;52.502;13.488;2024-02-26T08:23:15;21.73;;;19.27;;
1376;SDS011;682;52.502;13.488;2024-02-26T08:25:43;19.87;;;17.80;;
1376;SDS011;682;52.502;13.488;2024-02-26T08:28:10;23.83;;;18.67;;
1376;SDS011;682;52.502;13.488;2024-02-26T08:30:38;19.73;;;17.80;;
1376;SDS011;682;52.502;13.488;2024-02-26T08:33:05;18.40;;;15.77;;
1376;SDS011;682;52.502;13.488;2024-02-26T08:35:32;19.57;;;17.47;;
1376;SDS011;682;52.502;13.488;2024-02-26T08:37:59;23.93;;;18.60;;
1376;SDS011;682;52.502;13.488;2024-02-26T08:40:28;18.67;;;16.70;;
1376;SDS011;682;52.502;13.488;2024-02-26T08:42:55;29.87;;;18.37;;
1376;SDS011;682;52.502;13.488;2024-02-26T08:45:23;28.40;;;18.53;;
1376;SDS011;682;52.502;13.488;2024-02-26T08:47:52;25.93;;;19.10;;
1376;SDS011;682;52.502;13.488;2024-02-26T08:50:19;21.60;;;17.70;;
1376;SDS011;682;52.502;13.488;2024-02-26T08:52:46;21.47;;;17.60;;
1376;SDS011;682;52.502;13.488;2024-02-26T08:55:15;21.63;;;16.23;;
1376;SDS011;682;52.502;13.488;2024-02-26T08:57:46;25.13;;;18.67;;
1376;SDS011;682;52.502;13.488;2024-02-26T09:00:14;32.80;;;17.13;;
1376;SDS011;682;52.502;13.488;2024-02-26T09:02:43;21.07;;;16.67;;
1376;SDS011;682;52.502;13.488;2024-02-26T09:05:10;18.17;;;16.50;;
1376;SDS011;682;52.502;13.488;2024-02-26T09:07:37;18.87;;;17.00;;
1376;SDS011;682;52.502;13.488;2024-02-26T09:10:04;18.13;;;15.90;;
1376;SDS011;682;52.502;13.488;2024-02-26T09:12:34;20.40;;;15.80;;
1376;SDS011;682;52.502;13.488;2024-02-26T09:15:03;18.40;;;16.70;;
1376;SDS011;682;52.502;13.488;2024-02-26T09:17:30;18.80;;;16.80;;
1376;SDS011;682;52.502;13.488;2024-02-26T09:19:57;18.03;;;16.10;;
1376;SDS011;682;52.502;13.488;2024-02-26T09:22:24;18.00;;;15.77;;
1376;SDS011;682;52.502;13.488;2024-02-26T09:24:51;16.00;;;14.40;;
1376;SDS011;682;52.502;13.488;2024-02-26T09:27:20;19.13;;;16.70;;
1376;SDS011;682;52.502;13.488;2024-02-26T09:29:49;22.50;;;16.57;;
1376;SDS011;682;52.502;13.488;2024-02-26T09:32:19;16.60;;;14.90;;
1376;SDS011;682;52.502;13.488;2024-02-26T09:34:46;19.60;;;15.70;;
1376;SDS011;682;52.502;13.488;2024-02-26T09:37:14;18.67;;;15.77;;
1376;SDS011;682;52.502;13.488;2024-02-26T09:39:41;16.03;;;14.03;;
1376;SDS011;682;52.502;13.488;2024-02-26T09:42:08;17.80;;;15.90;;
1376;SDS011;682;52.502;13.488;2024-02-26T09:44:38;16.77;;;15.17;;
1376;SDS011;682;52.502;13.488;2024-02-26T09:47:07;16.67;;;14.80;;
1376;SDS011;682;52.502;13.488;2024-02-26T09:49:39;17.93;;;15.10;;
1376;SDS011;682;52.502;13.488;2024-02-26T09:52:08;17.13;;;15.37;;
1376;SDS011;682;52.502;13.488;2024-02-26T09:54:35;17.27;;;14.97;;
1376;SDS011;682;52.502;13.488;2024-02-26T09:57:03;16.37;;;14.70;;
1376;SDS011;682;52.502;13.488;2024-02-26T09:59:33;15.33;;;13.73;;
1376;SDS011;682;52.502;13.488;2024-02-26T10:02:06;15.40;;;13.90;;
1376;SDS011;682;52.502;13.488;2024-02-26T10:04:36;15.80;;;13.53;;
1376;SDS011;682;52.502;13.488;2024-02-26T10:07:04;16.30;;;14.60;;
1376;SDS011;682;52.502;13.488;2024-02-26T10:09:38;21.20;;;16.50;;
1376;SDS011;682;52.502;13.488;2024-02-26T10:12:07;16.20;;;14.43;;
1376;SDS011;682;52.502;13.488;2024-02-26T10:14:37;18.93;;;15.90;;
1376;SDS011;682;52.502;13.488;2024-02-26T10:17:07;15.17;;;13.53;;
1376;SDS011;682;52.502;13.488;2024-02-26T10:19:35;14.53;;;13.10;;
1376;SDS011;682;52.502;13.488;2024-02-26T10:22:02;14.23;;;12.90;;
1376;SDS011;682;52.502;13.488;2024-02-26T10:24:31;20.87;;;14.07;;
1376;SDS011;682;52.502;13.488;2024-02-26T10:26:59;14.47;;;12.93;;
1376;SDS011;682;52.502;13.488;2024-02-26T10:29:26;15.17;;;13.33;;
1376;SDS011;682;52.502;13.488;2024-02-26T10:31:53;13.83;;;12.53;;
1376;SDS011;682;52.502;13.488;2024-02-26T10:34:20;19.80;;;13.80;;
1376;SDS011;682;52.502;13.488;2024-02-26T10:36:48;14.47;;;12.97;;
1376;SDS011;682;52.502;13.488;2024-02-26T10:39:15;16.70;;;14.27;;
1376;SDS011;682;52.502;13.488;2024-02-26T10:41:44;15.30;;;13.70;;
1376;SDS011;682;52.502;13.488;2024-02-26T10:44:11;17.30;;;13.10;;
1376;SDS011;682;52.502;13.488;2024-02-26T10:46:40;15.10;;;12.60;;
1376;SDS011;682;52.502;13.488;2024-02-26T10:49:12;12.57;;;11.37;;
1376;SDS011;682;52.502;13.488;2024-02-26T10:51:45;18.30;;;11.90;;
1376;SDS011;682;52.502;13.488;2024-02-26T10:54:19;12.30;;;10.90;;
1376;SDS011;682;52.502;13.488;2024-02-26T10:56:48;14.33;;;12.00;;
1376;SDS011;682;52.502;13.488;2024-02-26T10:59:16;12.80;;;11.50;;
1376;SDS011;682;52.502;13.488;2024-02-26T11:01:45;13.53;;;12.23;;
1376;SDS011;682;52.502;13.488;2024-02-26T11:04:15;26.43;;;13.30;;
1376;SDS011;682;52.502;13.488;2024-02-26T11:06:43;15.20;;;12.20;;
1376;SDS011;682;52.502;13.488;2024-02-26T11:09:15;19.23;;;13.20;;
1376;SDS011;682;52.502;13.488;2024-02-26T11:11:43;13.57;;;11.23;;
1376;SDS011;682;52.502;13.488;2024-02-26T11:14:14;12.77;;;11.57;;
1376;SDS011;682;52.502;13.488;2024-02-26T11:16:41;14.30;;;12.33;;
1376;SDS011;682;52.502;13.488;2024-02-26T11:19:09;11.57;;;10.67;;
1376;SDS011;682;52.502;13.488;2024-02-26T11:21:39;13.73;;;11.33;;
1376;SDS011;682;52.502;13.488;2024-02-26T11:24:06;11.97;;;10.83;;
1376;SDS011;682;52.502;13.488;2024-02-26T11:26:44;11.30;;;10.20;;
1376;SDS011;682;52.502;13.488;2024-02-26T11:29:17;11.50;;;10.40;;
1376;SDS011;682;52.502;13.488;2024-02-26T11:31:48;11.70;;;10.60;;
1376;SDS011;682;52.502;13.488;2024-02-26T11:34:16;11.37;;;10.23;;
1376;SDS011;682;52.502;13.488;2024-02-26T11:36:44;15.90;;;10.60;;
1376;SDS011;682;52.502;13.488;2024-02-26T11:39:12;10.93;;;9.93;;
1376;SDS011;682;52.502;13.488;2024-02-26T11:41:41;15.33;;;11.13;;
1376;SDS011;682;52.502;13.488;2024-02-26T11:44:09;10.97;;;9.90;;
1376;SDS011;682;52.502;13.488;2024-02-26T11:46:39;12.60;;;11.40;;
1376;SDS011;682;52.502;13.488;2024-02-26T11:52:04;15.37;;;11.10;;
1376;SDS011;682;52.502;13.488;2024-02-26T11:54:40;11.60;;;10.40;;
1376;SDS011;682;52.502;13.488;2024-02-26T11:57:20;11.97;;;10.10;;
1376;SDS011;682;52.502;13.488;2024-02-26T11:59:52;11.03;;;10.00;;
1376;SDS011;682;52.502;13.488;2024-02-26T12:02:39;11.83;;;10.03;;
1376;SDS011;682;52.502;13.488;2024-02-26T12:05:09;11.50;;;10.40;;
1376;SDS011;682;52.502;13.488;2024-02-26T12:07:40;12.80;;;11.50;;
1376;SDS011;682;52.502;13.488;2024-02-26T12:10:14;11.50;;;10.40;;
1376;SDS011;682;52.502;13.488;2024-02-26T12:12:54;11.43;;;10.23;;
1376;SDS011;682;52.502;13.488;2024-02-26T12:15:29;11.10;;;10.03;;
1376;SDS011;682;52.502;13.488;2024-02-26T12:18:01;12.20;;;10.53;;
1376;SDS011;682;52.502;13.488;2024-02-26T12:20:30;11.03;;;9.97;;
1376;SDS011;682;52.502;13.488;2024-02-26T12:22:58;10.30;;;9.03;;
1376;SDS011;682;52.502;13.488;2024-02-26T12:25:26;10.70;;;9.70;;
1376;SDS011;682;52.502;13.488;2024-02-26T12:27:56;10.27;;;9.27;;
1376;SDS011;682;52.502;13.488;2024-02-26T12:30:23;9.97;;;9.10;;
1376;SDS011;682;52.502;13.488;2024-02-26T12:32:52;12.50;;;9.33;;
1376;SDS011;682;52.502;13.488;2024-02-26T12:35:23;9.00;;;8.10;;
1376;SDS011;682;52.502;13.488;2024-02-26T12:37:51;14.83;;;9.83;;
1376;SDS011;682;52.502;13.488;2024-02-26T12:40:19;9.27;;;8.53;;
1376;SDS011;682;52.502;13.488;2024-02-26T12:42:47;12.50;;;10.03;;
1376;SDS011;682;52.502;13.488;2024-02-26T12:45:23;9.77;;;8.10;;
1376;SDS011;682;52.502;13.488;2024-02-26T12:47:53;6.87;;;6.30;;
1376;SDS011;682;52.502;13.488;2024-02-26T12:50:25;8.27;;;7.57;;
1376;SDS011;682;52.502;13.488;2024-02-26T12:52:52;6.73;;;5.90;;
1376;SDS011;682;52.502;13.488;2024-02-26T12:55:20;9.23;;;7.03;;
1376;SDS011;682;52.502;13.488;2024-02-26T12:57:47;8.10;;;7.30;;
1376;SDS011;682;52.502;13.488;2024-02-26T13:00:18;12.33;;;9.23;;
1376;SDS011;682;52.502;13.488;2024-02-26T13:02:48;10.33;;;6.40;;
1376;SDS011;682;52.502;13.488;2024-02-26T13:05:17;16.90;;;15.40;;
1376;SDS011;682;52.502;13.488;2024-02-26T13:07:47;10.23;;;8.47;;
1376;SDS011;682;52.502;13.488;2024-02-26T13:10:14;11.80;;;9.33;;
1376;SDS011;682;52.502;13.488;2024-02-26T13:12:45;12.80;;;10.97;;
1376;SDS011;682;52.502;13.488;2024-02-26T13:15:15;11.67;;;10.40;;
1376;SDS011;682;52.502;13.488;2024-02-26T13:17:43;13.23;;;11.73;;
1376;SDS011;682;52.502;13.488;2024-02-26T13:20:11;17.33;;;13.90;;
1376;SDS011;682;52.502;13.488;2024-02-26T13:22:40;11.33;;;10.43;;
1376;SDS011;682;52.502;13.488;2024-02-26T13:25:08;10.63;;;9.60;;
1376;SDS011;682;52.502;13.488;2024-02-26T13:27:35;13.97;;;10.53;;
1376;SDS011;682;52.502;13.488;2024-02-26T13:30:03;11.50;;;10.40;;
1376;SDS011;682;52.502;13.488;2024-02-26T13:32:32;11.13;;;10.03;;
1376;SDS011;682;52.502;13.488;2024-02-26T13:35:07;10.73;;;9.73;;
1376;SDS011;682;52.502;13.488;2024-02-26T13:37:35;11.23;;;9.37;;
1376;SDS011;682;52.502;13.488;2024-02-26T13:40:04;12.37;;;9.80;;
1376;SDS011;682;52.502;13.488;2024-02-26T13:42:36;10.20;;;9.30;;
1376;SDS011;682;52.502;13.488;2024-02-26T13:45:04;10.73;;;9.50;;
1376;SDS011;682;52.502;13.488;2024-02-26T13:47:32;19.17;;;11.57;;
1376;SDS011;682;52.502;13.488;2024-02-26T13:49:59;10.80;;;9.10;;
1376;SDS011;682;52.502;13.488;2024-02-26T13:52:28;11.47;;;8.97;;
1376;SDS011;682;52.502;13.488;2024-02-26T13:54:57;10.23;;;9.23;;
1376;SDS011;682;52.502;13.488;2024-02-26T13:57:24;23.70;;;13.57;;
1376;SDS011;682;52.502;13.488;2024-02-26T13:59:53;11.67;;;9.50;;
1376;SDS011;682;52.502;13.488;2024-02-26T14:02:20;12.00;;;8.50;;
1376;SDS011;682;52.502;13.488;2024-02-26T14:04:47;166.33;;;42.83;;
1376;SDS011;682;52.502;13.488;2024-02-26T14:07:14;15.60;;;10.17;;
1376;SDS011;682;52.502;13.488;2024-02-26T14:09:42;13.03;;;8.97;;
1376;SDS011;682;52.502;13.488;2024-02-26T14:12:10;11.10;;;8.60;;
1376;SDS011;682;52.502;13.488;2024-02-26T14:14:37;12.53;;;9.70;;
1376;SDS011;682;52.502;13.488;2024-02-26T14:17:07;11.10;;;8.80;;
1376;SDS011;682;52.502;13.488;2024-02-26T14:19:35;12.10;;;9.70;;
1376;SDS011;682;52.502;13.488;2024-02-26T14:22:03;10.60;;;9.50;;
1376;SDS011;682;52.502;13.488;2024-02-26T14:24:32;9.73;;;8.27;;
1376;SDS011;682;52.502;13.488;2024-02-26T14:27:01;9.43;;;8.13;;
1376;SDS011;682;52.502;13.488;2024-02-26T14:29:29;16.03;;;12.80;;
1376;SDS011;682;52.502;13.488;2024-02-26T14:31:56;9.77;;;8.77;;
1376;SDS011;682;52.502;13.488;2024-02-26T14:34:26;10.57;;;9.57;;
1376;SDS011;682;52.502;13.488;2024-02-26T14:36:53;10.50;;;8.70;;
1376;SDS011;682;52.502;13.488;2024-02-26T14:39:20;13.03;;;9.67;;
1376;SDS011;682;52.502;13.488;2024-02-26T14:41:48;10.63;;;9.63;;
1376;SDS011;682;52.502;13.488;2024-02-26T14:44:15;10.30;;;9.27;;
1376;SDS011;682;52.502;13.488;2024-02-26T14:46:42;11.47;;;9.07;;
1376;SDS011;682;52.502;13.488;2024-02-26T14:49:09;13.40;;;11.00;;
1376;SDS011;682;52.502;13.488;2024-02-26T14:51:38;20.07;;;10.60;;
1376;SDS011;682;52.502;13.488;2024-02-26T14:54:05;18.40;;;10.00;;
1376;SDS011;682;52.502;13.488;2024-02-26T14:56:33;12.40;;;9.63;;
1376;SDS011;682;52.502;13.488;2024-02-26T14:59:00;17.53;;;11.97;;
1376;SDS011;682;52.502;13.488;2024-02-26T15:01:27;19.57;;;9.97;;